sensor_id;sensor_type;location;lat;lon;timestamp;P1;durP1;ratioP1;P2;durP2;ratioP2
63110;SDS011;49201;53.426;10.300;2022-08-01T00:00:12;18.37;;;16.47;;
63110;SDS011;49201;53.426;10.300;2022-08-01T00:02:38;17.47;;;15.77;;
63110;SDS011;49201;53.426;10.300;2022-08-01T00:05:05;18.00;;;16.10;;
63110;SDS011;49201;53.426;10.300;2022-08-01T00:07:32;17.97;;;16.20;;
63110;SDS011;49201;53.426;10.300;2022-08-01T00:09:58;18.67;;;16.80;;
63110;SDS011;49201;53.426;10.300;2022-08-01T00:12:24;16.50;;;14.90;;
63110;SDS011;49201;53.426;10.300;2022-08-01T00:14:49;18.20;;;16.30;;
63110;SDS011;49201;53.426;10.300;2022-08-01T00:17:14;16.03;;;14.53;;
63110;SDS011;49201;53.426;10.300;2022-08-01T00:19:40;17.67;;;16.07;;
63110;SDS011;49201;53.426;10.300;2022-08-01T00:22:06;17.63;;;15.93;;
63110;SDS011;49201;53.426;10.300;2022-08-01T00:24:31;18.00;;;16.10;;
63110;SDS011;49201;53.426;10.300;2022-08-01T00:26:57;17.53;;;15.83;;
63110;SDS011;49201;53.426;10.300;2022-08-01T00:29:22;18.03;;;16.30;;
63110;SDS011;49201;53.426;10.300;2022-08-01T00:31:47;18.30;;;16.60;;
63110;SDS011;49201;53.426;10.300;2022-08-01T00:34:13;18.17;;;16.47;;
63110;SDS011;49201;53.426;10.300;2022-08-01T00:36:38;20.03;;;18.13;;
63110;SDS011;49201;53.426;10.300;2022-08-01T00:39:04;18.30;;;16.53;;
63110;SDS011;49201;53.426;10.300;2022-08-01T00:41:29;20.13;;;18.07;;
63110;SDS011;49201;53.426;10.300;2022-08-01T00:43:55;20.43;;;18.33;;
63110;SDS011;49201;53.426;10.300;2022-08-01T00:46:20;18.63;;;16.83;;
63110;SDS011;49201;53.426;10.300;2022-08-01T00:48:46;19.20;;;17.30;;
63110;SDS011;49201;53.426;10.300;2022-08-01T00:51:11;18.97;;;17.13;;
63110;SDS011;49201;53.426;10.300;2022-08-01T00:53:38;19.43;;;17.33;;
63110;SDS011;49201;53.426;10.300;2022-08-01T00:56:04;19.53;;;17.57;;
63110;SDS011;49201;53.426;10.300;2022-08-01T00:58:30;19.47;;;17.63;;
63110;SDS011;49201;53.426;10.300;2022-08-01T01:00:57;19.40;;;17.50;;
63110;SDS011;49201;53.426;10.300;2022-08-01T01:03:24;19.33;;;17.43;;
63110;SDS011;49201;53.426;10.300;2022-08-01T01:08:46;19.63;;;17.73;;
63110;SDS011;49201;53.426;10.300;2022-08-01T01:11:44;18.60;;;16.80;;
63110;SDS011;49201;53.426;10.300;2022-08-01T01:14:10;19.07;;;16.27;;
63110;SDS011;49201;53.426;10.300;2022-08-01T01:16:44;18.27;;;16.27;;
63110;SDS011;49201;53.426;10.300;2022-08-01T01:19:13;18.37;;;16.30;;
63110;SDS011;49201;53.426;10.300;2022-08-01T01:21:54;17.83;;;16.03;;
63110;SDS011;49201;53.426;10.300;2022-08-01T01:24:34;18.17;;;16.37;;
63110;SDS011;49201;53.426;10.300;2022-08-01T01:29:44;17.20;;;14.67;;
63110;SDS011;49201;53.426;10.300;2022-08-01T01:32:14;17.57;;;15.87;;
63110;SDS011;49201;53.426;10.300;2022-08-01T01:34:45;17.50;;;15.33;;
63110;SDS011;49201;53.426;10.300;2022-08-01T01:37:16;17.17;;;15.37;;
63110;SDS011;49201;53.426;10.300;2022-08-01T01:39:44;17.53;;;15.73;;
63110;SDS011;49201;53.426;10.300;2022-08-01T01:42:13;16.50;;;14.80;;
63110;SDS011;49201;53.426;10.300;2022-08-01T01:44:41;17.10;;;15.30;;
63110;SDS011;49201;53.426;10.300;2022-08-01T01:47:09;15.77;;;14.27;;
63110;SDS011;49201;53.426;10.300;2022-08-01T01:49:37;16.97;;;15.17;;
63110;SDS011;49201;53.426;10.300;2022-08-01T01:52:06;18.10;;;14.93;;
63110;SDS011;49201;53.426;10.300;2022-08-01T01:54:36;15.43;;;13.90;;
63110;SDS011;49201;53.426;10.300;2022-08-01T01:57:05;16.00;;;13.30;;
63110;SDS011;49201;53.426;10.300;2022-08-01T01:59:32;14.47;;;12.97;;
63110;SDS011;49201;53.426;10.300;2022-08-01T02:02:01;14.63;;;13.13;;
63110;SDS011;49201;53.426;10.300;2022-08-01T02:04:28;12.77;;;11.13;;
63110;SDS011;49201;53.426;10.300;2022-08-01T02:06:55;15.40;;;11.30;;
63110;SDS011;49201;53.426;10.300;2022-08-01T02:09:23;13.60;;;11.00;;
63110;SDS011;49201;53.426;10.300;2022-08-01T02:11:51;12.17;;;11.07;;
63110;SDS011;49201;53.426;10.300;2022-08-01T02:14:18;10.80;;;9.70;;
63110;SDS011;49201;53.426;10.300;2022-08-01T02:16:47;11.40;;;10.20;;
63110;SDS011;49201;53.426;10.300;2022-08-01T02:19:14;12.30;;;10.37;;
63110;SDS011;49201;53.426;10.300;2022-08-01T02:21:47;12.20;;;10.90;;
63110;SDS011;49201;53.426;10.300;2022-08-01T02:27:04;13.07;;;10.73;;
63110;SDS011;49201;53.426;10.300;2022-08-01T02:29:36;14.50;;;11.93;;
63110;SDS011;49201;53.426;10.300;2022-08-01T02:32:06;15.00;;;11.53;;
63110;SDS011;49201;53.426;10.300;2022-08-01T02:34:34;13.87;;;11.90;;
63110;SDS011;49201;53.426;10.300;2022-08-01T02:37:00;15.23;;;13.57;;
63110;SDS011;49201;53.426;10.300;2022-08-01T02:39:28;16.80;;;13.73;;
63110;SDS011;49201;53.426;10.300;2022-08-01T02:41:57;15.40;;;13.20;;
63110;SDS011;49201;53.426;10.300;2022-08-01T02:44:28;18.20;;;14.80;;
63110;SDS011;49201;53.426;10.300;2022-08-01T02:46:57;15.90;;;14.20;;
63110;SDS011;49201;53.426;10.300;2022-08-01T02:49:28;16.93;;;13.30;;
63110;SDS011;49201;53.426;10.300;2022-08-01T02:51:56;17.13;;;15.03;;
63110;SDS011;49201;53.426;10.300;2022-08-01T02:54:23;16.87;;;13.60;;
63110;SDS011;49201;53.426;10.300;2022-08-01T02:56:51;16.23;;;13.37;;
63110;SDS011;49201;53.426;10.300;2022-08-01T02:59:19;14.13;;;12.60;;
63110;SDS011;49201;53.426;10.300;2022-08-01T03:01:50;13.83;;;11.93;;
63110;SDS011;49201;53.426;10.300;2022-08-01T03:04:18;13.07;;;11.77;;
63110;SDS011;49201;53.426;10.300;2022-08-01T03:06:47;15.60;;;11.73;;
63110;SDS011;49201;53.426;10.300;2022-08-01T03:09:13;12.30;;;11.00;;
63110;SDS011;49201;53.426;10.300;2022-08-01T03:11:40;15.80;;;11.40;;
63110;SDS011;49201;53.426;10.300;2022-08-01T03:14:08;12.80;;;11.47;;
63110;SDS011;49201;53.426;10.300;2022-08-01T03:16:38;13.87;;;12.03;;
63110;SDS011;49201;53.426;10.300;2022-08-01T03:19:05;13.87;;;12.30;;
63110;SDS011;49201;53.426;10.300;2022-08-01T03:21:33;15.60;;;12.50;;
63110;SDS011;49201;53.426;10.300;2022-08-01T03:24:00;15.50;;;12.07;;
63110;SDS011;49201;53.426;10.300;2022-08-01T03:26:28;14.73;;;11.03;;
63110;SDS011;49201;53.426;10.300;2022-08-01T03:28:56;13.17;;;11.70;;
63110;SDS011;49201;53.426;10.300;2022-08-01T03:31:27;14.27;;;10.47;;
63110;SDS011;49201;53.426;10.300;2022-08-01T03:33:53;12.97;;;10.60;;
63110;SDS011;49201;53.426;10.300;2022-08-01T03:36:21;10.47;;;9.37;;
63110;SDS011;49201;53.426;10.300;2022-08-01T03:38:52;11.23;;;10.10;;
63110;SDS011;49201;53.426;10.300;2022-08-01T03:41:22;11.00;;;8.83;;
63110;SDS011;49201;53.426;10.300;2022-08-01T03:43:52;11.60;;;9.20;;
63110;SDS011;49201;53.426;10.300;2022-08-01T03:46:26;11.13;;;8.80;;
63110;SDS011;49201;53.426;10.300;2022-08-01T03:48:58;12.13;;;9.57;;
63110;SDS011;49201;53.426;10.300;2022-08-01T03:51:28;11.23;;;9.87;;
63110;SDS011;49201;53.426;10.300;2022-08-01T03:53:55;11.60;;;10.17;;
63110;SDS011;49201;53.426;10.300;2022-08-01T03:56:24;12.50;;;11.27;;
63110;SDS011;49201;53.426;10.300;2022-08-01T03:58:51;13.47;;;12.13;;
63110;SDS011;49201;53.426;10.300;2022-08-01T04:01:17;13.93;;;12.50;;
63110;SDS011;49201;53.426;10.300;2022-08-01T04:03:43;13.67;;;12.20;;
63110;SDS011;49201;53.426;10.300;2022-08-01T04:06:09;12.47;;;11.07;;
63110;SDS011;49201;53.426;10.300;2022-08-01T04:08:38;13.07;;;11.03;;
63110;SDS011;49201;53.426;10.300;2022-08-01T04:11:05;11.63;;;10.10;;
63110;SDS011;49201;53.426;10.300;2022-08-01T04:13:33;10.80;;;9.47;;
63110;SDS011;49201;53.426;10.300;2022-08-01T04:15:58;11.40;;;9.50;;
63110;SDS011;49201;53.426;10.300;2022-08-01T04:18:24;12.53;;;8.70;;
63110;SDS011;49201;53.426;10.300;2022-08-01T04:20:49;9.70;;;8.70;;
63110;SDS011;49201;53.426;10.300;2022-08-01T04:23:16;12.43;;;8.97;;
63110;SDS011;49201;53.426;10.300;2022-08-01T04:25:45;11.43;;;8.40;;
63110;SDS011;49201;53.426;10.300;2022-08-01T04:28:13;10.30;;;8.40;;
63110;SDS011;49201;53.426;10.300;2022-08-01T04:30:42;10.67;;;8.70;;
63110;SDS011;49201;53.426;10.300;2022-08-01T04:33:11;11.00;;;8.40;;
63110;SDS011;49201;53.426;10.300;2022-08-01T04:35:41;11.50;;;8.57;;
63110;SDS011;49201;53.426;10.300;2022-08-01T04:38:10;10.03;;;8.87;;
63110;SDS011;49201;53.426;10.300;2022-08-01T04:40:39;9.10;;;8.20;;
63110;SDS011;49201;53.426;10.300;2022-08-01T04:43:06;11.67;;;7.80;;
63110;SDS011;49201;53.426;10.300;2022-08-01T04:45:32;10.53;;;7.13;;
63110;SDS011;49201;53.426;10.300;2022-08-01T04:47:58;12.33;;;7.60;;
63110;SDS011;49201;53.426;10.300;2022-08-01T04:50:25;9.40;;;8.40;;
63110;SDS011;49201;53.426;10.300;2022-08-01T04:52:50;6.57;;;5.93;;
63110;SDS011;49201;53.426;10.300;2022-08-01T04:55:16;6.23;;;5.63;;
63110;SDS011;49201;53.426;10.300;2022-08-01T04:57:42;6.70;;;5.60;;
63110;SDS011;49201;53.426;10.300;2022-08-01T05:00:10;5.97;;;5.47;;
63110;SDS011;49201;53.426;10.300;2022-08-01T05:02:36;5.87;;;5.27;;
63110;SDS011;49201;53.426;10.300;2022-08-01T05:05:02;6.50;;;5.00;;
63110;SDS011;49201;53.426;10.300;2022-08-01T05:07:28;6.43;;;4.80;;
63110;SDS011;49201;53.426;10.300;2022-08-01T05:09:53;6.57;;;4.53;;
63110;SDS011;49201;53.426;10.300;2022-08-01T05:12:19;6.20;;;4.63;;
63110;SDS011;49201;53.426;10.300;2022-08-01T05:14:45;7.57;;;5.23;;
63110;SDS011;49201;53.426;10.300;2022-08-01T05:17:11;6.33;;;5.13;;
63110;SDS011;49201;53.426;10.300;2022-08-01T05:19:37;6.63;;;5.87;;
63110;SDS011;49201;53.426;10.300;2022-08-01T05:22:03;7.43;;;6.57;;
63110;SDS011;49201;53.426;10.300;2022-08-01T05:24:31;8.50;;;7.60;;
63110;SDS011;49201;53.426;10.300;2022-08-01T05:26:57;9.70;;;7.47;;
63110;SDS011;49201;53.426;10.300;2022-08-01T05:29:23;8.00;;;7.20;;
63110;SDS011;49201;53.426;10.300;2022-08-01T05:31:49;8.70;;;7.17;;
63110;SDS011;49201;53.426;10.300;2022-08-01T05:34:15;7.70;;;7.00;;
63110;SDS011;49201;53.426;10.300;2022-08-01T05:36:41;7.33;;;6.70;;
63110;SDS011;49201;53.426;10.300;2022-08-01T05:39:07;7.47;;;6.67;;
63110;SDS011;49201;53.426;10.300;2022-08-01T05:41:33;6.60;;;5.80;;
63110;SDS011;49201;53.426;10.300;2022-08-01T05:43:58;6.10;;;5.43;;
63110;SDS011;49201;53.426;10.300;2022-08-01T05:46:24;6.77;;;5.57;;
63110;SDS011;49201;53.426;10.300;2022-08-01T05:48:50;6.80;;;4.60;;
63110;SDS011;49201;53.426;10.300;2022-08-01T05:51:15;5.00;;;4.43;;
63110;SDS011;49201;53.426;10.300;2022-08-01T05:53:41;5.53;;;5.07;;
63110;SDS011;49201;53.426;10.300;2022-08-01T05:56:06;6.93;;;5.00;;
63110;SDS011;49201;53.426;10.300;2022-08-01T05:58:32;5.23;;;4.80;;
63110;SDS011;49201;53.426;10.300;2022-08-01T06:00:58;5.37;;;3.50;;
63110;SDS011;49201;53.426;10.300;2022-08-01T06:03:23;3.57;;;3.10;;
63110;SDS011;49201;53.426;10.300;2022-08-01T06:05:51;2.43;;;2.20;;
63110;SDS011;49201;53.426;10.300;2022-08-01T06:08:16;3.83;;;1.80;;
63110;SDS011;49201;53.426;10.300;2022-08-01T06:10:42;2.10;;;1.53;;
63110;SDS011;49201;53.426;10.300;2022-08-01T06:13:07;2.43;;;1.87;;
63110;SDS011;49201;53.426;10.300;2022-08-01T06:15:33;2.30;;;1.70;;
63110;SDS011;49201;53.426;10.300;2022-08-01T06:17:59;4.00;;;2.23;;
63110;SDS011;49201;53.426;10.300;2022-08-01T06:20:24;3.03;;;2.03;;
63110;SDS011;49201;53.426;10.300;2022-08-01T06:22:50;2.47;;;1.60;;
63110;SDS011;49201;53.426;10.300;2022-08-01T06:25:17;4.33;;;1.93;;
63110;SDS011;49201;53.426;10.300;2022-08-01T06:27:43;2.33;;;2.10;;
63110;SDS011;49201;53.426;10.300;2022-08-01T06:30:09;2.97;;;1.90;;
63110;SDS011;49201;53.426;10.300;2022-08-01T06:32:35;2.70;;;1.93;;
63110;SDS011;49201;53.426;10.300;2022-08-01T06:35:00;3.70;;;1.67;;
63110;SDS011;49201;53.426;10.300;2022-08-01T06:37:30;3.07;;;1.80;;
63110;SDS011;49201;53.426;10.300;2022-08-01T06:39:59;5.03;;;2.10;;
63110;SDS011;49201;53.426;10.300;2022-08-01T06:42:28;2.33;;;1.80;;
63110;SDS011;49201;53.426;10.300;2022-08-01T06:44:56;3.57;;;2.30;;
63110;SDS011;49201;53.426;10.300;2022-08-01T06:47:22;4.50;;;2.50;;
63110;SDS011;49201;53.426;10.300;2022-08-01T06:49:48;2.47;;;2.27;;
63110;SDS011;49201;53.426;10.300;2022-08-01T06:52:13;3.50;;;2.60;;
63110;SDS011;49201;53.426;10.300;2022-08-01T06:54:39;3.80;;;2.40;;
63110;SDS011;49201;53.426;10.300;2022-08-01T06:57:04;4.20;;;2.73;;
63110;SDS011;49201;53.426;10.300;2022-08-01T06:59:30;3.57;;;2.80;;
63110;SDS011;49201;53.426;10.300;2022-08-01T07:01:56;4.43;;;3.20;;
63110;SDS011;49201;53.426;10.300;2022-08-01T07:04:21;4.70;;;3.70;;
63110;SDS011;49201;53.426;10.300;2022-08-01T07:06:47;5.47;;;4.70;;
63110;SDS011;49201;53.426;10.300;2022-08-01T07:09:12;6.47;;;5.10;;
63110;SDS011;49201;53.426;10.300;2022-08-01T07:11:38;5.10;;;4.60;;
63110;SDS011;49201;53.426;10.300;2022-08-01T07:14:03;4.70;;;4.27;;
63110;SDS011;49201;53.426;10.300;2022-08-01T07:16:29;5.63;;;4.43;;
63110;SDS011;49201;53.426;10.300;2022-08-01T07:18:54;6.97;;;4.97;;
63110;SDS011;49201;53.426;10.300;2022-08-01T07:21:20;6.57;;;4.83;;
63110;SDS011;49201;53.426;10.300;2022-08-01T07:23:45;8.60;;;4.53;;
63110;SDS011;49201;53.426;10.300;2022-08-01T07:26:11;5.63;;;4.03;;
63110;SDS011;49201;53.426;10.300;2022-08-01T07:28:37;5.07;;;3.97;;
63110;SDS011;49201;53.426;10.300;2022-08-01T07:31:03;6.73;;;4.97;;
63110;SDS011;49201;53.426;10.300;2022-08-01T07:33:28;9.03;;;5.37;;
63110;SDS011;49201;53.426;10.300;2022-08-01T07:35:54;7.50;;;5.93;;
63110;SDS011;49201;53.426;10.300;2022-08-01T07:38:19;8.33;;;5.37;;
63110;SDS011;49201;53.426;10.300;2022-08-01T07:40:45;7.27;;;5.30;;
63110;SDS011;49201;53.426;10.300;2022-08-01T07:43:10;7.13;;;5.57;;
63110;SDS011;49201;53.426;10.300;2022-08-01T07:45:36;7.33;;;5.40;;
63110;SDS011;49201;53.426;10.300;2022-08-01T07:48:02;8.80;;;5.40;;
63110;SDS011;49201;53.426;10.300;2022-08-01T07:50:29;8.47;;;5.60;;
63110;SDS011;49201;53.426;10.300;2022-08-01T07:52:55;7.63;;;5.10;;
63110;SDS011;49201;53.426;10.300;2022-08-01T07:55:20;8.97;;;5.57;;
63110;SDS011;49201;53.426;10.300;2022-08-01T07:57:46;8.57;;;4.90;;
63110;SDS011;49201;53.426;10.300;2022-08-01T08:00:11;8.27;;;5.10;;
63110;SDS011;49201;53.426;10.300;2022-08-01T08:02:38;6.33;;;4.53;;
63110;SDS011;49201;53.426;10.300;2022-08-01T08:05:03;8.27;;;4.53;;
63110;SDS011;49201;53.426;10.300;2022-08-01T08:07:29;8.73;;;4.43;;
63110;SDS011;49201;53.426;10.300;2022-08-01T08:09:55;5.13;;;4.20;;
63110;SDS011;49201;53.426;10.300;2022-08-01T08:12:21;7.83;;;4.27;;
63110;SDS011;49201;53.426;10.300;2022-08-01T08:14:46;6.83;;;3.67;;
63110;SDS011;49201;53.426;10.300;2022-08-01T08:17:12;8.57;;;4.20;;
63110;SDS011;49201;53.426;10.300;2022-08-01T08:19:37;9.60;;;4.17;;
63110;SDS011;49201;53.426;10.300;2022-08-01T08:22:05;7.97;;;3.87;;
63110;SDS011;49201;53.426;10.300;2022-08-01T08:24:31;9.20;;;4.93;;
63110;SDS011;49201;53.426;10.300;2022-08-01T08:26:58;8.00;;;4.67;;
63110;SDS011;49201;53.426;10.300;2022-08-01T08:29:24;10.77;;;6.27;;
63110;SDS011;49201;53.426;10.300;2022-08-01T08:31:54;8.20;;;5.90;;
63110;SDS011;49201;53.426;10.300;2022-08-01T08:34:21;10.50;;;6.27;;
63110;SDS011;49201;53.426;10.300;2022-08-01T08:36:47;9.80;;;5.57;;
63110;SDS011;49201;53.426;10.300;2022-08-01T08:39:13;12.40;;;6.17;;
63110;SDS011;49201;53.426;10.300;2022-08-01T08:41:38;10.47;;;5.63;;
63110;SDS011;49201;53.426;10.300;2022-08-01T08:44:04;13.33;;;5.60;;
63110;SDS011;49201;53.426;10.300;2022-08-01T08:46:31;11.97;;;5.60;;
63110;SDS011;49201;53.426;10.300;2022-08-01T08:48:58;11.00;;;5.43;;
63110;SDS011;49201;53.426;10.300;2022-08-01T08:51:26;9.27;;;4.50;;
63110;SDS011;49201;53.426;10.300;2022-08-01T08:53:54;12.00;;;4.33;;
63110;SDS011;49201;53.426;10.300;2022-08-01T08:56:21;9.20;;;4.57;;
63110;SDS011;49201;53.426;10.300;2022-08-01T08:58:52;8.60;;;3.83;;
63110;SDS011;49201;53.426;10.300;2022-08-01T09:01:17;11.40;;;3.67;;
63110;SDS011;49201;53.426;10.300;2022-08-01T09:03:43;9.90;;;3.20;;
63110;SDS011;49201;53.426;10.300;2022-08-01T09:06:09;13.33;;;3.13;;
63110;SDS011;49201;53.426;10.300;2022-08-01T09:08:36;7.80;;;2.80;;
63110;SDS011;49201;53.426;10.300;2022-08-01T09:11:02;8.00;;;3.10;;
63110;SDS011;49201;53.426;10.300;2022-08-01T09:13:28;8.00;;;2.60;;
63110;SDS011;49201;53.426;10.300;2022-08-01T09:15:54;7.70;;;2.20;;
63110;SDS011;49201;53.426;10.300;2022-08-01T09:23:39;12.27;;;2.90;;
63110;SDS011;49201;53.426;10.300;2022-08-01T09:26:10;8.23;;;2.60;;
63110;SDS011;49201;53.426;10.300;2022-08-01T09:28:37;7.17;;;2.30;;
63110;SDS011;49201;53.426;10.300;2022-08-01T09:31:07;3.27;;;1.60;;
63110;SDS011;49201;53.426;10.300;2022-08-01T09:33:47;5.50;;;1.63;;
63110;SDS011;49201;53.426;10.300;2022-08-01T09:36:15;7.23;;;2.00;;
63110;SDS011;49201;53.426;10.300;2022-08-01T09:38:41;4.33;;;1.53;;
63110;SDS011;49201;53.426;10.300;2022-08-01T09:41:07;6.43;;;2.27;;
63110;SDS011;49201;53.426;10.300;2022-08-01T09:43:33;5.77;;;2.10;;
63110;SDS011;49201;53.426;10.300;2022-08-01T09:45:59;6.40;;;2.20;;
63110;SDS011;49201;53.426;10.300;2022-08-01T09:48:29;7.00;;;2.37;;
63110;SDS011;49201;53.426;10.300;2022-08-01T09:50:57;7.40;;;2.30;;
63110;SDS011;49201;53.426;10.300;2022-08-01T09:53:24;7.53;;;2.30;;
63110;SDS011;49201;53.426;10.300;2022-08-01T09:55:49;6.03;;;1.70;;
63110;SDS011;49201;53.426;10.300;2022-08-01T09:58:17;3.70;;;1.53;;
63110;SDS011;49201;53.426;10.300;2022-08-01T10:00:44;5.15;;;2.33;;
63110;SDS011;49201;53.426;10.300;2022-08-01T10:03:28;3.65;;;1.52;;
63110;SDS011;49201;53.426;10.300;2022-08-01T10:05:54;5.18;;;1.67;;
63110;SDS011;49201;53.426;10.300;2022-08-01T10:08:22;5.57;;;1.90;;
63110;SDS011;49201;53.426;10.300;2022-08-01T10:11:08;8.77;;;2.83;;
63110;SDS011;49201;53.426;10.300;2022-08-01T10:13:36;7.70;;;2.53;;
63110;SDS011;49201;53.426;10.300;2022-08-01T10:16:01;7.97;;;2.08;;
63110;SDS011;49201;53.426;10.300;2022-08-01T10:18:30;9.25;;;2.67;;
63110;SDS011;49201;53.426;10.300;2022-08-01T10:20:58;5.65;;;2.35;;
63110;SDS011;49201;53.426;10.300;2022-08-01T10:23:26;5.90;;;2.13;;
63110;SDS011;49201;53.426;10.300;2022-08-01T10:25:53;8.93;;;2.30;;
63110;SDS011;49201;53.426;10.300;2022-08-01T10:28:20;8.68;;;2.25;;
63110;SDS011;49201;53.426;10.300;2022-08-01T10:30:47;5.85;;;1.73;;
63110;SDS011;49201;53.426;10.300;2022-08-01T10:33:14;4.30;;;2.00;;
63110;SDS011;49201;53.426;10.300;2022-08-01T10:35:40;9.32;;;2.83;;
63110;SDS011;49201;53.426;10.300;2022-08-01T10:38:06;6.85;;;2.35;;
63110;SDS011;49201;53.426;10.300;2022-08-01T10:40:32;5.57;;;2.33;;
63110;SDS011;49201;53.426;10.300;2022-08-01T10:42:58;7.55;;;2.10;;
63110;SDS011;49201;53.426;10.300;2022-08-01T10:45:24;6.88;;;2.22;;
63110;SDS011;49201;53.426;10.300;2022-08-01T10:47:58;8.10;;;2.53;;
63110;SDS011;49201;53.426;10.300;2022-08-01T10:50:31;7.88;;;2.70;;
63110;SDS011;49201;53.426;10.300;2022-08-01T10:55:44;8.80;;;2.95;;
63110;SDS011;49201;53.426;10.300;2022-08-01T10:58:36;7.25;;;2.50;;
63110;SDS011;49201;53.426;10.300;2022-08-01T11:01:22;9.25;;;3.08;;
63110;SDS011;49201;53.426;10.300;2022-08-01T11:03:57;11.35;;;3.03;;
63110;SDS011;49201;53.426;10.300;2022-08-01T11:06:28;8.75;;;2.30;;
63110;SDS011;49201;53.426;10.300;2022-08-01T11:09:04;9.32;;;3.25;;
63110;SDS011;49201;53.426;10.300;2022-08-01T11:11:57;8.43;;;3.20;;
63110;SDS011;49201;53.426;10.300;2022-08-01T11:14:25;6.25;;;2.50;;
63110;SDS011;49201;53.426;10.300;2022-08-01T11:16:51;8.77;;;2.67;;
63110;SDS011;49201;53.426;10.300;2022-08-01T11:19:16;6.20;;;2.60;;
63110;SDS011;49201;53.426;10.300;2022-08-01T11:29:42;9.63;;;2.53;;
63110;SDS011;49201;53.426;10.300;2022-08-01T11:32:23;7.38;;;2.63;;
63110;SDS011;49201;53.426;10.300;2022-08-01T11:34:54;7.60;;;2.55;;
63110;SDS011;49201;53.426;10.300;2022-08-01T11:37:27;7.22;;;2.28;;
63110;SDS011;49201;53.426;10.300;2022-08-01T11:40:54;8.65;;;2.53;;
63110;SDS011;49201;53.426;10.300;2022-08-01T11:42:49;11.23;;;2.60;;
63110;SDS011;49201;53.426;10.300;2022-08-01T11:45:16;7.25;;;2.30;;
63110;SDS011;49201;53.426;10.300;2022-08-01T11:47:48;5.97;;;2.03;;
63110;SDS011;49201;53.426;10.300;2022-08-01T11:50:31;7.25;;;2.38;;
63110;SDS011;49201;53.426;10.300;2022-08-01T11:52:59;8.50;;;2.50;;
63110;SDS011;49201;53.426;10.300;2022-08-01T11:55:26;8.32;;;2.30;;
63110;SDS011;49201;53.426;10.300;2022-08-01T11:58:00;7.03;;;2.00;;
63110;SDS011;49201;53.426;10.300;2022-08-01T12:00:27;8.30;;;1.70;;
63110;SDS011;49201;53.426;10.300;2022-08-01T12:03:04;6.53;;;1.90;;
63110;SDS011;49201;53.426;10.300;2022-08-01T12:05:32;5.85;;;1.90;;
63110;SDS011;49201;53.426;10.300;2022-08-01T12:08:01;5.78;;;1.65;;
63110;SDS011;49201;53.426;10.300;2022-08-01T12:10:29;5.13;;;2.10;;
63110;SDS011;49201;53.426;10.300;2022-08-01T12:13:01;4.10;;;1.42;;
63110;SDS011;49201;53.426;10.300;2022-08-01T12:15:33;5.25;;;1.67;;
63110;SDS011;49201;53.426;10.300;2022-08-01T12:18:01;6.63;;;1.90;;
63110;SDS011;49201;53.426;10.300;2022-08-01T12:20:30;4.72;;;1.35;;
63110;SDS011;49201;53.426;10.300;2022-08-01T12:22:59;4.50;;;1.52;;
63110;SDS011;49201;53.426;10.300;2022-08-01T12:25:25;5.13;;;1.75;;
63110;SDS011;49201;53.426;10.300;2022-08-01T12:27:51;4.63;;;1.73;;
63110;SDS011;49201;53.426;10.300;2022-08-01T12:30:21;7.97;;;2.17;;
63110;SDS011;49201;53.426;10.300;2022-08-01T12:32:47;6.53;;;2.22;;
63110;SDS011;49201;53.426;10.300;2022-08-01T12:35:20;9.90;;;2.00;;
63110;SDS011;49201;53.426;10.300;2022-08-01T12:38:07;4.93;;;1.90;;
63110;SDS011;49201;53.426;10.300;2022-08-01T12:40:40;7.45;;;2.00;;
63110;SDS011;49201;53.426;10.300;2022-08-01T12:43:08;7.43;;;2.08;;
63110;SDS011;49201;53.426;10.300;2022-08-01T12:45:44;6.25;;;1.95;;
63110;SDS011;49201;53.426;10.300;2022-08-01T12:48:14;5.78;;;1.88;;
63110;SDS011;49201;53.426;10.300;2022-08-01T12:50:42;7.63;;;2.33;;
63110;SDS011;49201;53.426;10.300;2022-08-01T12:53:12;7.85;;;1.83;;
63110;SDS011;49201;53.426;10.300;2022-08-01T12:55:47;5.07;;;1.92;;
63110;SDS011;49201;53.426;10.300;2022-08-01T12:58:15;8.18;;;2.53;;
63110;SDS011;49201;53.426;10.300;2022-08-01T13:00:42;6.25;;;2.13;;
63110;SDS011;49201;53.426;10.300;2022-08-01T13:03:11;7.80;;;2.00;;
63110;SDS011;49201;53.426;10.300;2022-08-01T13:08:14;5.32;;;1.80;;
63110;SDS011;49201;53.426;10.300;2022-08-01T13:10:42;9.45;;;2.00;;
63110;SDS011;49201;53.426;10.300;2022-08-01T13:13:08;6.07;;;1.80;;
63110;SDS011;49201;53.426;10.300;2022-08-01T13:15:36;4.38;;;1.65;;
63110;SDS011;49201;53.426;10.300;2022-08-01T13:23:41;5.68;;;1.65;;
63110;SDS011;49201;53.426;10.300;2022-08-01T13:29:17;8.38;;;1.63;;
63110;SDS011;49201;53.426;10.300;2022-08-01T13:31:45;6.50;;;2.20;;
63110;SDS011;49201;53.426;10.300;2022-08-01T13:34:11;7.97;;;1.88;;
63110;SDS011;49201;53.426;10.300;2022-08-01T13:36:37;6.03;;;2.03;;
63110;SDS011;49201;53.426;10.300;2022-08-01T13:39:04;5.72;;;1.60;;
63110;SDS011;49201;53.426;10.300;2022-08-01T13:41:49;7.88;;;1.80;;
63110;SDS011;49201;53.426;10.300;2022-08-01T13:44:14;6.63;;;1.90;;
63110;SDS011;49201;53.426;10.300;2022-08-01T13:46:40;5.68;;;1.58;;
63110;SDS011;49201;53.426;10.300;2022-08-01T13:49:07;6.22;;;1.58;;
63110;SDS011;49201;53.426;10.300;2022-08-01T13:51:34;7.22;;;1.80;;
63110;SDS011;49201;53.426;10.300;2022-08-01T13:54:00;4.60;;;1.90;;
63110;SDS011;49201;53.426;10.300;2022-08-01T13:56:26;7.35;;;1.67;;
63110;SDS011;49201;53.426;10.300;2022-08-01T13:58:53;5.18;;;1.40;;
63110;SDS011;49201;53.426;10.300;2022-08-01T14:01:22;4.63;;;1.55;;
63110;SDS011;49201;53.426;10.300;2022-08-01T14:03:48;4.97;;;1.70;;
63110;SDS011;49201;53.426;10.300;2022-08-01T14:06:14;5.35;;;1.73;;
63110;SDS011;49201;53.426;10.300;2022-08-01T14:08:41;5.47;;;1.75;;
63110;SDS011;49201;53.426;10.300;2022-08-01T14:11:08;5.30;;;1.80;;
63110;SDS011;49201;53.426;10.300;2022-08-01T14:13:33;4.55;;;1.45;;
63110;SDS011;49201;53.426;10.300;2022-08-01T14:15:59;6.45;;;1.80;;
63110;SDS011;49201;53.426;10.300;2022-08-01T14:18:25;5.13;;;1.60;;
63110;SDS011;49201;53.426;10.300;2022-08-01T14:20:51;4.55;;;1.65;;
63110;SDS011;49201;53.426;10.300;2022-08-01T14:23:16;3.80;;;1.42;;
63110;SDS011;49201;53.426;10.300;2022-08-01T14:25:42;6.03;;;1.65;;
63110;SDS011;49201;53.426;10.300;2022-08-01T14:28:08;4.63;;;1.42;;
63110;SDS011;49201;53.426;10.300;2022-08-01T14:30:34;4.05;;;1.20;;
63110;SDS011;49201;53.426;10.300;2022-08-01T14:32:59;6.82;;;1.52;;
63110;SDS011;49201;53.426;10.300;2022-08-01T14:35:25;5.65;;;1.40;;
63110;SDS011;49201;53.426;10.300;2022-08-01T14:37:51;5.78;;;1.50;;
63110;SDS011;49201;53.426;10.300;2022-08-01T14:40:17;4.47;;;1.42;;
63110;SDS011;49201;53.426;10.300;2022-08-01T14:42:43;4.78;;;1.40;;
63110;SDS011;49201;53.426;10.300;2022-08-01T14:45:09;6.88;;;1.75;;
63110;SDS011;49201;53.426;10.300;2022-08-01T14:47:36;5.00;;;1.50;;
63110;SDS011;49201;53.426;10.300;2022-08-01T14:50:03;5.15;;;1.38;;
63110;SDS011;49201;53.426;10.300;2022-08-01T14:52:31;5.80;;;1.45;;
63110;SDS011;49201;53.426;10.300;2022-08-01T14:54:57;6.53;;;1.73;;
63110;SDS011;49201;53.426;10.300;2022-08-01T14:57:23;7.75;;;1.75;;
63110;SDS011;49201;53.426;10.300;2022-08-01T14:59:48;6.68;;;1.80;;
63110;SDS011;49201;53.426;10.300;2022-08-01T15:02:14;5.10;;;1.38;;
63110;SDS011;49201;53.426;10.300;2022-08-01T15:04:42;6.80;;;1.70;;